sensor_id;sensor_type;location;lat;lon;timestamp;pressure;altitude;pressure_sealevel;temperature;humidity
11971;BME280;6045;42.682;23.294;2023-05-12T00:00:15;94885.69;;;9.87;76.65
11971;BME280;6045;42.682;23.294;2023-05-12T00:02:42;94878.78;;;9.97;76.81
11971;BME280;6045;42.682;23.294;2023-05-12T00:05:10;94879.88;;;9.90;76.47
11971;BME280;6045;42.682;23.294;2023-05-12T00:07:37;94883.97;;;9.92;76.21
11971;BME280;6045;42.682;23.294;2023-05-12T00:10:04;94878.44;;;9.94;76.00
11971;BME280;6045;42.682;23.294;2023-05-12T00:12:31;94885.53;;;10.00;75.60
11971;BME280;6045;42.682;23.294;2023-05-12T00:14:58;94880.09;;;9.88;75.76
11971;BME280;6045;42.682;23.294;2023-05-12T00:17:25;94878.28;;;9.82;76.43
11971;BME280;6045;42.682;23.294;2023-05-12T00:19:52;94884.78;;;9.93;75.97
11971;BME280;6045;42.682;23.294;2023-05-12T00:22:20;94889.38;;;9.86;76.10
11971;BME280;6045;42.682;23.294;2023-05-12T00:24:46;94882.88;;;9.75;76.12
11971;BME280;6045;42.682;23.294;2023-05-12T00:27:13;94889.97;;;9.88;75.65
11971;BME280;6045;42.682;23.294;2023-05-12T00:29:40;94887.34;;;9.81;76.46
11971;BME280;6045;42.682;23.294;2023-05-12T00:32:07;94888.59;;;9.79;76.88
11971;BME280;6045;42.682;23.294;2023-05-12T00:34:33;94891.09;;;9.74;76.76
11971;BME280;6045;42.682;23.294;2023-05-12T00:37:00;94890.69;;;9.77;76.95
11971;BME280;6045;42.682;23.294;2023-05-12T00:39:28;94881.91;;;9.70;77.63
11971;BME280;6045;42.682;23.294;2023-05-12T00:41:56;94893.59;;;9.69;77.97
11971;BME280;6045;42.682;23.294;2023-05-12T00:44:22;94889.31;;;9.68;78.46
11971;BME280;6045;42.682;23.294;2023-05-12T00:46:50;94891.25;;;9.54;79.01
11971;BME280;6045;42.682;23.294;2023-05-12T00:49:16;94883.97;;;9.43;79.84
11971;BME280;6045;42.682;23.294;2023-05-12T00:51:43;94895.50;;;9.61;80.23
11971;BME280;6045;42.682;23.294;2023-05-12T00:54:10;94897.59;;;9.59;80.46
11971;BME280;6045;42.682;23.294;2023-05-12T00:56:39;94890.47;;;9.53;80.14
11971;BME280;6045;42.682;23.294;2023-05-12T00:59:06;94898.63;;;9.58;80.75
11971;BME280;6045;42.682;23.294;2023-05-12T01:01:33;94911.22;;;9.51;81.38
11971;BME280;6045;42.682;23.294;2023-05-12T01:04:01;94905.72;;;9.40;82.35
11971;BME280;6045;42.682;23.294;2023-05-12T01:06:32;94901.72;;;9.24;82.67
11971;BME280;6045;42.682;23.294;2023-05-12T01:09:01;94904.56;;;9.29;83.75
11971;BME280;6045;42.682;23.294;2023-05-12T01:11:28;94911.53;;;9.30;83.91
11971;BME280;6045;42.682;23.294;2023-05-12T01:13:56;94915.28;;;9.23;84.17
11971;BME280;6045;42.682;23.294;2023-05-12T01:16:25;94904.63;;;9.16;84.97
11971;BME280;6045;42.682;23.294;2023-05-12T01:18:55;94899.75;;;9.13;84.98
11971;BME280;6045;42.682;23.294;2023-05-12T01:21:22;94907.16;;;9.11;85.89
11971;BME280;6045;42.682;23.294;2023-05-12T01:23:55;94904.50;;;9.05;86.52
11971;BME280;6045;42.682;23.294;2023-05-12T01:26:25;94902.69;;;8.99;86.39
11971;BME280;6045;42.682;23.294;2023-05-12T01:28:54;94909.31;;;8.89;86.23
11971;BME280;6045;42.682;23.294;2023-05-12T01:31:22;94908.47;;;8.89;86.63
11971;BME280;6045;42.682;23.294;2023-05-12T01:33:49;94918.56;;;8.80;85.70
11971;BME280;6045;42.682;23.294;2023-05-12T01:36:16;94918.56;;;8.74;86.26
11971;BME280;6045;42.682;23.294;2023-05-12T01:38:43;94909.81;;;8.60;86.69
11971;BME280;6045;42.682;23.294;2023-05-12T01:41:09;94910.66;;;8.61;87.32
11971;BME280;6045;42.682;23.294;2023-05-12T01:43:37;94905.88;;;8.69;87.25
11971;BME280;6045;42.682;23.294;2023-05-12T01:46:04;94910.19;;;8.70;87.01
11971;BME280;6045;42.682;23.294;2023-05-12T01:48:31;94914.50;;;8.71;87.39
11971;BME280;6045;42.682;23.294;2023-05-12T01:50:58;94910.22;;;8.64;87.64
11971;BME280;6045;42.682;23.294;2023-05-12T01:53:25;94906.97;;;8.55;88.02
11971;BME280;6045;42.682;23.294;2023-05-12T01:55:52;94906.53;;;8.65;88.07
11971;BME280;6045;42.682;23.294;2023-05-12T01:58:18;94903.66;;;8.60;88.12
11971;BME280;6045;42.682;23.294;2023-05-12T02:00:46;94900.41;;;8.58;88.64
11971;BME280;6045;42.682;23.294;2023-05-12T02:03:13;94903.66;;;8.60;88.36
11971;BME280;6045;42.682;23.294;2023-05-12T02:05:40;94907.75;;;8.62;88.36
11971;BME280;6045;42.682;23.294;2023-05-12T02:08:07;94896.72;;;8.59;88.85
11971;BME280;6045;42.682;23.294;2023-05-12T02:10:34;94910.66;;;8.61;89.43
11971;BME280;6045;42.682;23.294;2023-05-12T02:13:00;94899.59;;;8.51;88.72
11971;BME280;6045;42.682;23.294;2023-05-12T02:15:27;94903.50;;;8.48;89.83
11971;BME280;6045;42.682;23.294;2023-05-12T02:17:55;94899.03;;;8.42;89.11
11971;BME280;6045;42.682;23.294;2023-05-12T02:20:22;94903.59;;;8.29;89.13
11971;BME280;6045;42.682;23.294;2023-05-12T02:22:49;94908.31;;;8.27;89.65
11971;BME280;6045;42.682;23.294;2023-05-12T02:25:16;94901.50;;;8.17;89.63
11971;BME280;6045;42.682;23.294;2023-05-12T02:27:43;94895.59;;;8.29;90.46
11971;BME280;6045;42.682;23.294;2023-05-12T02:30:10;94902.56;;;8.16;90.16
11971;BME280;6045;42.682;23.294;2023-05-12T02:32:37;94896.81;;;8.19;90.75
11971;BME280;6045;42.682;23.294;2023-05-12T02:35:06;94900.91;;;8.15;91.21
11971;BME280;6045;42.682;23.294;2023-05-12T02:37:33;94898.03;;;8.30;91.66
11971;BME280;6045;42.682;23.294;2023-05-12T02:40:00;94900.47;;;8.32;91.72
11971;BME280;6045;42.682;23.294;2023-05-12T02:42:27;94891.06;;;8.36;91.78
11971;BME280;6045;42.682;23.294;2023-05-12T02:44:59;94897.66;;;8.27;91.69
11971;BME280;6045;42.682;23.294;2023-05-12T02:47:26;94904.38;;;8.22;91.95
11971;BME280;6045;42.682;23.294;2023-05-12T02:49:55;94901.28;;;8.39;92.33
11971;BME280;6045;42.682;23.294;2023-05-12T02:52:23;94901.72;;;8.29;91.95
11971;BME280;6045;42.682;23.294;2023-05-12T02:54:50;94901.94;;;8.27;91.76
11971;BME280;6045;42.682;23.294;2023-05-12T02:57:17;94900.47;;;8.45;91.71
11971;BME280;6045;42.682;23.294;2023-05-12T02:59:44;94908.66;;;8.37;91.23
11971;BME280;6045;42.682;23.294;2023-05-12T03:02:10;94913.63;;;8.27;90.85
11971;BME280;6045;42.682;23.294;2023-05-12T03:04:37;94912.75;;;8.39;90.90
11971;BME280;6045;42.682;23.294;2023-05-12T03:07:04;94906.22;;;8.35;90.81
11971;BME280;6045;42.682;23.294;2023-05-12T03:09:32;94902.72;;;8.48;91.04
11971;BME280;6045;42.682;23.294;2023-05-12T03:11:59;94905.38;;;8.48;90.83
11971;BME280;6045;42.682;23.294;2023-05-12T03:14:26;94917.69;;;8.36;90.69
11971;BME280;6045;42.682;23.294;2023-05-12T03:16:53;94910.91;;;8.40;90.70
11971;BME280;6045;42.682;23.294;2023-05-12T03:19:20;94906.22;;;8.35;90.89
11971;BME280;6045;42.682;23.294;2023-05-12T03:21:47;94913.41;;;8.21;90.85
11971;BME280;6045;42.682;23.294;2023-05-12T03:24:13;94915.25;;;8.08;91.37
11971;BME280;6045;42.682;23.294;2023-05-12T03:26:41;94913.19;;;8.16;92.00
11971;BME280;6045;42.682;23.294;2023-05-12T03:29:08;94921.38;;;8.21;92.13
11971;BME280;6045;42.682;23.294;2023-05-12T03:31:35;94918.53;;;8.16;92.20
11971;BME280;6045;42.682;23.294;2023-05-12T03:34:01;94924.84;;;8.15;92.36
11971;BME280;6045;42.682;23.294;2023-05-12T03:36:28;94917.28;;;8.19;92.60
11971;BME280;6045;42.682;23.294;2023-05-12T03:38:55;94926.72;;;8.21;92.73
11971;BME280;6045;42.682;23.294;2023-05-12T03:41:22;94923.44;;;8.33;93.71
11971;BME280;6045;42.682;23.294;2023-05-12T03:43:50;94930.75;;;8.50;94.09
11971;BME280;6045;42.682;23.294;2023-05-12T03:46:16;94925.16;;;8.65;93.02
11971;BME280;6045;42.682;23.294;2023-05-12T03:48:43;94933.59;;;8.62;92.09
11971;BME280;6045;42.682;23.294;2023-05-12T03:51:10;94934.00;;;8.65;91.81
11971;BME280;6045;42.682;23.294;2023-05-12T03:53:37;94930.31;;;8.60;91.46
11971;BME280;6045;42.682;23.294;2023-05-12T03:56:07;94930.91;;;8.68;90.85
11971;BME280;6045;42.682;23.294;2023-05-12T03:58:34;94931.94;;;8.67;90.59
11971;BME280;6045;42.682;23.294;2023-05-12T04:01:02;94935.41;;;8.68;90.96
11971;BME280;6045;42.682;23.294;2023-05-12T04:03:29;94931.28;;;8.72;91.04
11971;BME280;6045;42.682;23.294;2023-05-12T04:05:57;94936.78;;;8.83;91.25
11971;BME280;6045;42.682;23.294;2023-05-12T04:08:24;94945.91;;;9.07;94.69
11971;BME280;6045;42.682;23.294;2023-05-12T04:10:53;94939.53;;;10.51;100.00
11971;BME280;6045;42.682;23.294;2023-05-12T04:13:21;94940.25;;;10.76;100.00
11971;BME280;6045;42.682;23.294;2023-05-12T04:15:48;94938.03;;;11.10;97.51
11971;BME280;6045;42.682;23.294;2023-05-12T04:18:17;94942.50;;;11.45;89.95
11971;BME280;6045;42.682;23.294;2023-05-12T04:20:43;94944.75;;;11.60;82.38
11971;BME280;6045;42.682;23.294;2023-05-12T04:23:10;94945.16;;;11.16;79.29
11971;BME280;6045;42.682;23.294;2023-05-12T04:25:38;94945.91;;;11.05;82.38
11971;BME280;6045;42.682;23.294;2023-05-12T04:28:05;94944.00;;;10.75;80.90
11971;BME280;6045;42.682;23.294;2023-05-12T04:30:32;94945.25;;;10.91;86.96
11971;BME280;6045;42.682;23.294;2023-05-12T04:32:59;94946.16;;;10.67;82.07
11971;BME280;6045;42.682;23.294;2023-05-12T04:35:27;94947.63;;;10.20;82.49
11971;BME280;6045;42.682;23.294;2023-05-12T04:37:54;94945.84;;;10.14;82.79
11971;BME280;6045;42.682;23.294;2023-05-12T04:40:20;94944.63;;;10.10;83.08
11971;BME280;6045;42.682;23.294;2023-05-12T04:42:47;94947.56;;;10.02;84.92
11971;BME280;6045;42.682;23.294;2023-05-12T04:45:14;94950.81;;;10.04;85.15
11971;BME280;6045;42.682;23.294;2023-05-12T04:47:41;94944.84;;;9.84;84.38
11971;BME280;6045;42.682;23.294;2023-05-12T04:50:08;94948.63;;;9.70;85.17
11971;BME280;6045;42.682;23.294;2023-05-12T04:52:37;94951.03;;;9.78;85.51
11971;BME280;6045;42.682;23.294;2023-05-12T04:55:04;94949.81;;;9.74;85.62
11971;BME280;6045;42.682;23.294;2023-05-12T04:57:32;94953.78;;;9.64;85.36
11971;BME280;6045;42.682;23.294;2023-05-12T04:59:58;94955.09;;;9.55;85.51
11971;BME280;6045;42.682;23.294;2023-05-12T05:02:29;94955.03;;;9.62;86.08
11971;BME280;6045;42.682;23.294;2023-05-12T05:04:56;94954.69;;;9.52;86.16
11971;BME280;6045;42.682;23.294;2023-05-12T05:07:22;94956.56;;;9.51;86.06
11971;BME280;6045;42.682;23.294;2023-05-12T05:09:50;94958.06;;;9.41;86.08
11971;BME280;6045;42.682;23.294;2023-05-12T05:12:17;94960.34;;;9.31;86.51
11971;BME280;6045;42.682;23.294;2023-05-12T05:14:44;94950.59;;;9.18;87.61
11971;BME280;6045;42.682;23.294;2023-05-12T05:17:10;94951.38;;;9.25;88.13
11971;BME280;6045;42.682;23.294;2023-05-12T05:19:37;94960.94;;;9.39;88.09
11971;BME280;6045;42.682;23.294;2023-05-12T05:22:04;94956.03;;;9.36;87.61
11971;BME280;6045;42.682;23.294;2023-05-12T05:24:31;94964.06;;;9.30;88.13
11971;BME280;6045;42.682;23.294;2023-05-12T05:26:59;94961.34;;;9.36;88.97
11971;BME280;6045;42.682;23.294;2023-05-12T05:29:26;94958.31;;;9.26;88.24
11971;BME280;6045;42.682;23.294;2023-05-12T05:31:52;94960.75;;;9.34;88.60
11971;BME280;6045;42.682;23.294;2023-05-12T05:34:19;94967.25;;;9.45;87.72
11971;BME280;6045;42.682;23.294;2023-05-12T05:36:46;94967.44;;;9.50;87.95
11971;BME280;6045;42.682;23.294;2023-05-12T05:39:13;94966.72;;;9.61;89.08
11971;BME280;6045;42.682;23.294;2023-05-12T05:41:39;94974.19;;;9.52;87.44
11971;BME280;6045;42.682;23.294;2023-05-12T05:44:07;94970.50;;;9.53;87.53
11971;BME280;6045;42.682;23.294;2023-05-12T05:46:34;94961.03;;;9.57;87.41
11971;BME280;6045;42.682;23.294;2023-05-12T05:49:01;94966.38;;;9.57;87.08
11971;BME280;6045;42.682;23.294;2023-05-12T05:51:27;94967.84;;;9.53;86.36
11971;BME280;6045;42.682;23.294;2023-05-12T05:53:54;94971.06;;;9.62;87.39
11971;BME280;6045;42.682;23.294;2023-05-12T05:56:26;94975.69;;;9.73;87.00
11971;BME280;6045;42.682;23.294;2023-05-12T05:58:52;94972.69;;;9.63;86.89
11971;BME280;6045;42.682;23.294;2023-05-12T06:01:20;94978.22;;;9.61;86.66
11971;BME280;6045;42.682;23.294;2023-05-12T06:03:47;94976.94;;;9.71;85.96
11971;BME280;6045;42.682;23.294;2023-05-12T06:06:14;94970.34;;;9.80;86.39
11971;BME280;6045;42.682;23.294;2023-05-12T06:08:41;94976.09;;;9.77;86.66
11971;BME280;6045;42.682;23.294;2023-05-12T06:11:08;94974.84;;;9.79;86.28
11971;BME280;6045;42.682;23.294;2023-05-12T06:13:35;94978.28;;;10.11;93.19
11971;BME280;6045;42.682;23.294;2023-05-12T06:16:01;94983.63;;;10.11;87.93
11971;BME280;6045;42.682;23.294;2023-05-12T06:18:30;94981.38;;;10.14;86.04
11971;BME280;6045;42.682;23.294;2023-05-12T06:20:58;94984.69;;;10.10;84.66
11971;BME280;6045;42.682;23.294;2023-05-12T06:23:24;94993.09;;;10.13;85.09
11971;BME280;6045;42.682;23.294;2023-05-12T06:25:51;94986.13;;;10.12;84.79
11971;BME280;6045;42.682;23.294;2023-05-12T06:28:18;94986.50;;;10.16;84.86
11971;BME280;6045;42.682;23.294;2023-05-12T06:30:45;94986.06;;;10.19;84.64
11971;BME280;6045;42.682;23.294;2023-05-12T06:33:11;94996.25;;;10.28;84.08
11971;BME280;6045;42.682;23.294;2023-05-12T06:35:40;94991.78;;;10.22;83.28
11971;BME280;6045;42.682;23.294;2023-05-12T06:38:06;94984.53;;;10.29;83.23
11971;BME280;6045;42.682;23.294;2023-05-12T06:40:33;95000.13;;;10.32;82.75
11971;BME280;6045;42.682;23.294;2023-05-12T06:43:00;94995.69;;;10.20;83.38
11971;BME280;6045;42.682;23.294;2023-05-12T06:45:27;95006.19;;;10.21;83.04
11971;BME280;6045;42.682;23.294;2023-05-12T06:47:53;95002.03;;;10.25;82.97
11971;BME280;6045;42.682;23.294;2023-05-12T06:50:21;95001.97;;;10.32;82.39
11971;BME280;6045;42.682;23.294;2023-05-12T06:52:49;95007.91;;;10.34;81.75
11971;BME280;6045;42.682;23.294;2023-05-12T06:55:16;95001.81;;;10.52;82.03
11971;BME280;6045;42.682;23.294;2023-05-12T06:57:44;95006.41;;;10.45;80.08
11971;BME280;6045;42.682;23.294;2023-05-12T07:00:12;95000.47;;;10.43;81.30
11971;BME280;6045;42.682;23.294;2023-05-12T07:02:39;95001.19;;;10.32;80.67
11971;BME280;6045;42.682;23.294;2023-05-12T07:05:06;95003.03;;;10.31;80.86
11971;BME280;6045;42.682;23.294;2023-05-12T07:07:33;94998.72;;;10.30;80.87
11971;BME280;6045;42.682;23.294;2023-05-12T07:10:02;95000.38;;;10.24;80.59
11971;BME280;6045;42.682;23.294;2023-05-12T07:12:30;95003.19;;;10.36;81.24
11971;BME280;6045;42.682;23.294;2023-05-12T07:14:58;95000.88;;;10.40;80.80
11971;BME280;6045;42.682;23.294;2023-05-12T07:17:25;95008.91;;;10.40;79.97
11971;BME280;6045;42.682;23.294;2023-05-12T07:19:53;95011.22;;;10.36;80.16
11971;BME280;6045;42.682;23.294;2023-05-12T07:22:19;95010.97;;;10.38;80.51
11971;BME280;6045;42.682;23.294;2023-05-12T07:24:47;94999.31;;;10.32;80.50
11971;BME280;6045;42.682;23.294;2023-05-12T07:27:16;95010.50;;;10.47;80.91
11971;BME280;6045;42.682;23.294;2023-05-12T07:29:43;95002.78;;;10.57;80.98
11971;BME280;6045;42.682;23.294;2023-05-12T07:32:09;95004.66;;;10.57;80.54
11971;BME280;6045;42.682;23.294;2023-05-12T07:34:36;95012.44;;;10.58;80.19
11971;BME280;6045;42.682;23.294;2023-05-12T07:37:03;95010.31;;;10.67;80.63
11971;BME280;6045;42.682;23.294;2023-05-12T07:39:30;95005.75;;;10.67;80.05
11971;BME280;6045;42.682;23.294;2023-05-12T07:41:57;95007.78;;;10.72;80.29
11971;BME280;6045;42.682;23.294;2023-05-12T07:44:26;95015.09;;;10.83;81.23
11971;BME280;6045;42.682;23.294;2023-05-12T07:46:52;95016.63;;;10.90;81.55
11971;BME280;6045;42.682;23.294;2023-05-12T07:49:19;95010.09;;;10.86;80.52
11971;BME280;6045;42.682;23.294;2023-05-12T07:51:47;95016.34;;;10.98;79.39
11971;BME280;6045;42.682;23.294;2023-05-12T07:54:14;95010.69;;;11.25;79.58
11971;BME280;6045;42.682;23.294;2023-05-12T07:56:41;95001.91;;;11.36;79.14
11971;BME280;6045;42.682;23.294;2023-05-12T07:59:07;95002.63;;;11.61;79.21
11971;BME280;6045;42.682;23.294;2023-05-12T08:01:36;95006.09;;;11.80;77.20
11971;BME280;6045;42.682;23.294;2023-05-12T08:04:03;94999.69;;;12.10;76.32
11971;BME280;6045;42.682;23.294;2023-05-12T08:06:31;94998.59;;;12.11;73.41
11971;BME280;6045;42.682;23.294;2023-05-12T08:08:58;95000.16;;;12.19;73.31
11971;BME280;6045;42.682;23.294;2023-05-12T08:11:24;94991.16;;;12.25;74.07
11971;BME280;6045;42.682;23.294;2023-05-12T08:13:51;95005.19;;;12.27;73.92
11971;BME280;6045;42.682;23.294;2023-05-12T08:16:18;94997.16;;;12.39;73.06
11971;BME280;6045;42.682;23.294;2023-05-12T08:18:46;94993.66;;;12.61;73.20
11971;BME280;6045;42.682;23.294;2023-05-12T08:21:16;95001.47;;;12.63;69.86
11971;BME280;6045;42.682;23.294;2023-05-12T08:23:43;95005.09;;;12.91;70.54
11971;BME280;6045;42.682;23.294;2023-05-12T08:26:10;94999.50;;;13.16;69.92
11971;BME280;6045;42.682;23.294;2023-05-12T08:28:36;95011.38;;;13.20;69.92
11971;BME280;6045;42.682;23.294;2023-05-12T08:31:03;95004.75;;;12.88;69.29
11971;BME280;6045;42.682;23.294;2023-05-12T08:33:30;95005.09;;;12.80;69.46
11971;BME280;6045;42.682;23.294;2023-05-12T08:35:58;95005.66;;;12.82;69.89
11971;BME280;6045;42.682;23.294;2023-05-12T08:38:26;95013.63;;;13.00;69.93
11971;BME280;6045;42.682;23.294;2023-05-12T08:41:00;95001.22;;;12.99;68.89
11971;BME280;6045;42.682;23.294;2023-05-12T08:43:37;95006.94;;;13.02;71.83
11971;BME280;6045;42.682;23.294;2023-05-12T08:46:07;95002.06;;;12.99;69.62
11971;BME280;6045;42.682;23.294;2023-05-12T08:48:37;95008.31;;;13.05;68.99
11971;BME280;6045;42.682;23.294;2023-05-12T08:51:07;95009.28;;;13.11;68.41
11971;BME280;6045;42.682;23.294;2023-05-12T08:53:36;95011.41;;;13.09;67.79
11971;BME280;6045;42.682;23.294;2023-05-12T08:56:05;95007.16;;;13.01;68.04
11971;BME280;6045;42.682;23.294;2023-05-12T08:58:51;95003.34;;;12.97;67.18
11971;BME280;6045;42.682;23.294;2023-05-12T09:01:19;95006.13;;;13.02;68.05
11971;BME280;6045;42.682;23.294;2023-05-12T09:03:46;95007.44;;;12.88;67.13
11971;BME280;6045;42.682;23.294;2023-05-12T09:06:14;94999.38;;;12.88;67.58
11971;BME280;6045;42.682;23.294;2023-05-12T09:08:42;94997.84;;;12.92;68.92
11971;BME280;6045;42.682;23.294;2023-05-12T09:11:10;95002.28;;;12.98;68.90
11971;BME280;6045;42.682;23.294;2023-05-12T09:13:43;94999.28;;;13.06;67.16
11971;BME280;6045;42.682;23.294;2023-05-12T09:16:13;94993.31;;;12.92;66.75
11971;BME280;6045;42.682;23.294;2023-05-12T09:18:49;94985.50;;;12.79;67.42
11971;BME280;6045;42.682;23.294;2023-05-12T09:21:17;94988.16;;;12.91;68.34
11971;BME280;6045;42.682;23.294;2023-05-12T09:23:54;94987.50;;;13.07;67.45
11971;BME280;6045;42.682;23.294;2023-05-12T09:26:22;94988.25;;;13.19;66.71
11971;BME280;6045;42.682;23.294;2023-05-12T09:28:51;94981.41;;;13.23;67.04
11971;BME280;6045;42.682;23.294;2023-05-12T09:31:19;94977.28;;;13.32;66.70
11971;BME280;6045;42.682;23.294;2023-05-12T09:33:46;94978.06;;;13.44;66.46
11971;BME280;6045;42.682;23.294;2023-05-12T09:36:17;94979.09;;;13.43;65.92
11971;BME280;6045;42.682;23.294;2023-05-12T09:38:44;94982.47;;;13.50;65.97
11971;BME280;6045;42.682;23.294;2023-05-12T09:41:11;94986.97;;;13.61;65.90
11971;BME280;6045;42.682;23.294;2023-05-12T09:43:43;94987.53;;;13.47;64.17
11971;BME280;6045;42.682;23.294;2023-05-12T09:46:11;94992.47;;;13.27;64.97
11971;BME280;6045;42.682;23.294;2023-05-12T09:48:38;94984.78;;;13.19;65.13
11971;BME280;6045;42.682;23.294;2023-05-12T09:51:08;94989.06;;;13.31;65.44
11971;BME280;6045;42.682;23.294;2023-05-12T09:53:41;94986.34;;;13.43;65.10
11971;BME280;6045;42.682;23.294;2023-05-12T09:56:10;94984.00;;;13.46;64.31
11971;BME280;6045;42.682;23.294;2023-05-12T09:58:41;94985.94;;;13.62;63.94
11971;BME280;6045;42.682;23.294;2023-05-12T10:01:09;94986.66;;;13.86;63.07
11971;BME280;6045;42.682;23.294;2023-05-12T10:03:36;94987.97;;;14.00;63.27
11971;BME280;6045;42.682;23.294;2023-05-12T10:06:05;94991.56;;;13.89;61.95
11971;BME280;6045;42.682;23.294;2023-05-12T10:08:35;94981.53;;;13.85;62.63
11971;BME280;6045;42.682;23.294;2023-05-12T10:11:04;94982.16;;;13.75;61.81
11971;BME280;6045;42.682;23.294;2023-05-12T10:13:32;94980.72;;;13.84;61.80
11971;BME280;6045;42.682;23.294;2023-05-12T10:15:59;94979.31;;;13.82;61.99
11971;BME280;6045;42.682;23.294;2023-05-12T10:18:26;94968.75;;;13.92;61.24
11971;BME280;6045;42.682;23.294;2023-05-12T10:20:55;94970.41;;;14.09;60.80
11971;BME280;6045;42.682;23.294;2023-05-12T10:23:22;94969.84;;;14.24;59.50
11971;BME280;6045;42.682;23.294;2023-05-12T10:25:52;94966.69;;;14.27;60.98
11971;BME280;6045;42.682;23.294;2023-05-12T10:28:24;94965.72;;;14.50;60.64
11971;BME280;6045;42.682;23.294;2023-05-12T10:30:51;94965.88;;;14.60;58.71
11971;BME280;6045;42.682;23.294;2023-05-12T10:33:18;94965.72;;;14.50;57.82
11971;BME280;6045;42.682;23.294;2023-05-12T10:35:45;94966.47;;;14.45;58.69
11971;BME280;6045;42.682;23.294;2023-05-12T10:38:14;94961.72;;;14.52;57.59
11971;BME280;6045;42.682;23.294;2023-05-12T10:40:50;94952.09;;;14.73;58.15
11971;BME280;6045;42.682;23.294;2023-05-12T10:43:20;94954.28;;;14.76;58.04
11971;BME280;6045;42.682;23.294;2023-05-12T10:46:07;94951.66;;;14.97;57.93
11971;BME280;6045;42.682;23.294;2023-05-12T10:48:35;94955.03;;;15.10;57.12
11971;BME280;6045;42.682;23.294;2023-05-12T10:51:06;94950.84;;;15.19;56.76
11971;BME280;6045;42.682;23.294;2023-05-12T10:53:33;94954.97;;;15.26;57.20
11971;BME280;6045;42.682;23.294;2023-05-12T10:56:02;94950.84;;;15.19;57.22
11971;BME280;6045;42.682;23.294;2023-05-12T10:58:29;94953.63;;;14.85;57.58
11971;BME280;6045;42.682;23.294;2023-05-12T11:01:03;94951.22;;;14.67;58.40
11971;BME280;6045;42.682;23.294;2023-05-12T11:03:31;94949.94;;;14.91;58.26
11971;BME280;6045;42.682;23.294;2023-05-12T11:06:00;94946.69;;;15.11;57.73
11971;BME280;6045;42.682;23.294;2023-05-12T11:08:26;94957.91;;;15.25;57.18
11971;BME280;6045;42.682;23.294;2023-05-12T11:10:53;94952.91;;;15.12;56.52
11971;BME280;6045;42.682;23.294;2023-05-12T11:13:20;94962.56;;;14.91;57.23
11971;BME280;6045;42.682;23.294;2023-05-12T11:15:47;94959.50;;;14.82;58.25
11971;BME280;6045;42.682;23.294;2023-05-12T11:18:19;94957.25;;;14.74;58.19
11971;BME280;6045;42.682;23.294;2023-05-12T11:20:47;94959.56;;;14.21;58.63
11971;BME280;6045;42.682;23.294;2023-05-12T11:23:24;94966.47;;;14.00;60.47
11971;BME280;6045;42.682;23.294;2023-05-12T11:25:53;94962.59;;;14.08;60.28
11971;BME280;6045;42.682;23.294;2023-05-12T11:28:19;94962.75;;;14.18;60.38
11971;BME280;6045;42.682;23.294;2023-05-12T11:30:50;94969.13;;;14.28;60.82
11971;BME280;6045;42.682;23.294;2023-05-12T11:33:20;94972.53;;;14.24;60.03
11971;BME280;6045;42.682;23.294;2023-05-12T11:35:49;94967.97;;;14.24;59.52
11971;BME280;6045;42.682;23.294;2023-05-12T11:38:16;94964.56;;;14.12;59.61
11971;BME280;6045;42.682;23.294;2023-05-12T11:40:43;94963.91;;;14.22;60.35
11971;BME280;6045;42.682;23.294;2023-05-12T11:43:10;94966.22;;;14.30;59.82
11971;BME280;6045;42.682;23.294;2023-05-12T11:45:39;94964.22;;;14.25;58.18
11971;BME280;6045;42.682;23.294;2023-05-12T11:48:07;94959.34;;;14.22;58.98
11971;BME280;6045;42.682;23.294;2023-05-12T11:50:36;94956.16;;;14.25;59.09
11971;BME280;6045;42.682;23.294;2023-05-12T11:53:09;94966.09;;;14.25;59.23
11971;BME280;6045;42.682;23.294;2023-05-12T11:55:36;94963.59;;;14.35;58.95
11971;BME280;6045;42.682;23.294;2023-05-12T11:58:03;94956.28;;;14.47;57.69
11971;BME280;6045;42.682;23.294;2023-05-12T12:00:31;94961.72;;;14.52;57.85
11971;BME280;6045;42.682;23.294;2023-05-12T12:03:08;94960.63;;;14.70;57.87
11971;BME280;6045;42.682;23.294;2023-05-12T12:05:35;94956.50;;;14.79;57.23
11971;BME280;6045;42.682;23.294;2023-05-12T12:08:08;94954.94;;;14.83;57.40
11971;BME280;6045;42.682;23.294;2023-05-12T12:10:37;94952.31;;;14.88;56.30
11971;BME280;6045;42.682;23.294;2023-05-12T12:13:04;94962.91;;;14.94;55.67
11971;BME280;6045;42.682;23.294;2023-05-12T12:15:30;94951.66;;;14.97;56.15
11971;BME280;6045;42.682;23.294;2023-05-12T12:17:57;94958.06;;;14.96;56.56
11971;BME280;6045;42.682;23.294;2023-05-12T12:20:24;94953.84;;;14.84;57.47
11971;BME280;6045;42.682;23.294;2023-05-12T12:22:51;94961.63;;;14.64;58.14
11971;BME280;6045;42.682;23.294;2023-05-12T12:25:20;94966.47;;;14.62;58.12
11971;BME280;6045;42.682;23.294;2023-05-12T12:27:47;94973.22;;;14.64;55.90
11971;BME280;6045;42.682;23.294;2023-05-12T12:30:14;94960.09;;;14.51;55.32
11971;BME280;6045;42.682;23.294;2023-05-12T12:32:43;94965.25;;;14.53;56.31
11971;BME280;6045;42.682;23.294;2023-05-12T12:35:10;94956.09;;;14.54;56.64
11971;BME280;6045;42.682;23.294;2023-05-12T12:37:38;94966.56;;;14.50;56.81
11971;BME280;6045;42.682;23.294;2023-05-12T12:40:06;94959.03;;;14.35;56.30
11971;BME280;6045;42.682;23.294;2023-05-12T12:42:36;94959.34;;;14.39;56.77
11971;BME280;6045;42.682;23.294;2023-05-12T12:45:05;94961.41;;;14.49;57.42
11971;BME280;6045;42.682;23.294;2023-05-12T12:47:34;94957.97;;;14.53;56.47
11971;BME280;6045;42.682;23.294;2023-05-12T12:50:01;94954.16;;;14.32;56.44
11971;BME280;6045;42.682;23.294;2023-05-12T12:52:29;94961.25;;;14.38;56.59
11971;BME280;6045;42.682;23.294;2023-05-12T12:54:55;94952.53;;;14.48;55.90
11971;BME280;6045;42.682;23.294;2023-05-12T12:57:22;94955.88;;;14.38;55.82
11971;BME280;6045;42.682;23.294;2023-05-12T12:59:51;94947.63;;;14.45;55.46
11971;BME280;6045;42.682;23.294;2023-05-12T13:02:18;94947.00;;;14.38;54.70
11971;BME280;6045;42.682;23.294;2023-05-12T13:04:45;94951.47;;;14.32;55.46
11971;BME280;6045;42.682;23.294;2023-05-12T13:07:11;94943.88;;;14.29;55.18